Time;durP1;ratioP1;P1;durP2;ratioP2;P2;SDS_P1;SDS_P2;PMS_P1;PMS_P2;Temp;Humidity;BMP_temperature;BMP_pressure;BME280_temperature;BME280_humidity;BME280_pressure;Samples;Min_cycle;Max_cycle;Signal;HPM_P1;HPM_P2
2022/03/22 00:00:55;;;;;;;;;26.33;24.33;;;;;14.65;48.82;102310.88;4998458;28;46366;-70
2022/03/22 00:03:24;;;;;;;;;26.33;24.67;;;;;13.83;49.04;102182.34;5011158;28;45274;-70
2022/03/22 00:05:49;;;;;;;;;21.67;21.33;;;;;14.59;48.85;102306.88;5017729;28;45358;-74
2022/03/22 00:08:15;;;;;;;;;27.00;22.67;;;;;14.58;48.51;102310.53;4999323;28;45662;-72
2022/03/22 00:10:40;;;;;;;;;22.67;21.00;;;;;14.56;48.73;102307.16;5013823;28;45566;-70
2022/03/22 00:13:06;;;;;;;;;28.33;24.33;;;;;14.52;48.52;102317.28;5010346;28;45320;-70
2022/03/22 00:15:35;;;;;;;;;16.67;16.33;;;;;14.20;48.63;102268.28;5018351;28;45642;-70
2022/03/22 00:18:01;;;;;;;;;24.33;22.67;;;;;14.07;48.78;102238.25;5016950;28;45218;-69
2022/03/22 00:20:27;;;;;;;;;26.00;22.00;;;;;14.58;48.09;102323.94;4999935;28;46266;-73
2022/03/22 00:22:54;;;;;;;;;22.33;20.67;;;;;14.56;48.54;102323.22;4992164;28;45417;-71
2022/03/22 00:25:20;;;;;;;;;21.33;21.00;;;;;14.58;48.62;102326.59;4999626;28;45664;-71
2022/03/22 00:27:53;;;;;;;;;24.67;22.00;;;;;14.56;48.19;102323.22;5009047;28;45488;-72
2022/03/22 00:30:33;;;;;;;;;24.33;21.67;;;;;14.56;48.21;102324.06;4989726;28;48440;-70
2022/03/22 00:33:01;;;;;;;;;23.00;19.00;;;;;14.50;48.30;102318.41;5017765;28;45530;-70
2022/03/22 00:35:34;;;;;;;;;22.67;20.33;;;;;14.54;48.37;102330.53;5010000;28;45274;-70
2022/03/22 00:38:00;;;;;;;;;19.67;18.67;;;;;14.51;48.47;102330.78;5017364;28;45621;-70
2022/03/22 00:40:27;;;;;;;;;23.67;20.67;;;;;14.52;48.28;102337.84;4997547;28;48579;-72
2022/03/22 00:42:53;;;;;;;;;23.67;21.33;;;;;14.45;48.45;102334.00;5012536;28;45558;-70
2022/03/22 00:45:24;;;;;;;;;24.67;23.00;;;;;14.45;48.51;102342.03;5001537;28;45551;-71
2022/03/22 00:47:52;;;;;;;;;21.33;20.33;;;;;14.32;48.41;102335.00;4997806;28;45460;-72
2022/03/22 00:50:21;;;;;;;;;25.33;22.33;;;;;14.32;48.52;102340.34;5016068;28;46442;-71
2022/03/22 00:52:47;;;;;;;;;23.33;23.33;;;;;14.21;48.52;102329.69;4997434;28;47139;-70
2022/03/22 00:55:13;;;;;;;;;25.00;23.00;;;;;14.17;49.03;102328.25;5015705;28;45642;-73
2022/03/22 00:57:40;;;;;;;;;26.67;26.67;;;;;14.22;49.05;102336.75;4999432;28;45483;-71
2022/03/22 01:00:12;;;;;;;;;25.00;24.33;;;;;14.24;48.75;102337.47;4999150;28;47587;-72
2022/03/22 01:02:41;;;;;;;;;26.33;24.33;;;;;14.20;48.70;102325.31;4980255;28;45480;-71
2022/03/22 01:05:11;;;;;;;;;26.00;24.00;;;;;14.23;48.98;102333.13;4998065;28;45508;-72
2022/03/22 01:07:38;;;;;;;;;31.00;25.67;;;;;13.81;48.54;102251.97;5016582;28;45538;-71
2022/03/22 01:10:06;;;;;;;;;27.33;26.67;;;;;14.23;48.49;102332.25;5017562;28;46596;-71
2022/03/22 01:12:32;;;;;;;;;18.00;15.33;;;;;14.25;48.62;102339.19;5016946;28;45539;-71
2022/03/22 01:14:58;;;;;;;;;23.33;21.00;;;;;14.24;48.36;102334.81;4999351;28;45487;-72
2022/03/22 01:17:24;;;;;;;;;23.00;23.00;;;;;14.19;48.39;102325.44;4999012;28;45444;-71
2022/03/22 01:19:49;;;;;;;;;24.00;22.33;;;;;14.14;48.54;102315.13;4982798;28;47808;-72
2022/03/22 01:22:16;;;;;;;;;18.33;18.33;;;;;14.23;47.68;102335.78;5017655;28;45431;-71
2022/03/22 01:24:43;;;;;;;;;23.33;21.67;;;;;14.05;46.94;102310.59;5016993;28;45329;-71
2022/03/22 01:27:08;;;;;;;;;22.00;20.00;;;;;14.10;46.98;102321.72;5012958;28;45407;-73
2022/03/22 01:29:34;;;;;;;;;25.33;22.67;;;;;14.09;47.60;102317.38;5008444;28;46053;-69
2022/03/22 01:31:59;;;;;;;;;23.33;23.33;;;;;14.16;48.02;102321.22;5016818;28;46182;-69
2022/03/22 01:34:26;;;;;;;;;22.67;18.67;;;;;14.19;47.69;102326.28;4999464;28;45345;-71
2022/03/22 01:36:51;;;;;;;;;25.67;22.67;;;;;14.15;47.88;102316.84;5003823;28;45337;-72
2022/03/22 01:39:17;;;;;;;;;27.67;25.00;;;;;14.19;48.06;102330.81;4993760;28;47306;-73
2022/03/22 01:41:42;;;;;;;;;27.00;22.33;;;;;14.09;47.89;102314.69;5006329;28;45263;-72
2022/03/22 01:44:08;;;;;;;;;21.33;20.00;;;;;14.08;47.46;102318.34;5015144;28;45228;-72
2022/03/22 01:46:36;;;;;;;;;23.67;20.67;;;;;14.07;47.66;102321.16;5016745;28;45539;-70
2022/03/22 01:49:02;;;;;;;;;24.00;22.00;;;;;14.08;46.96;102329.03;5016370;28;45959;-73
2022/03/22 01:51:32;;;;;;;;;27.33;23.67;;;;;13.97;47.22;102315.69;5016221;28;45471;-71
2022/03/22 01:53:58;;;;;;;;;25.33;24.00;;;;;14.02;46.75;102323.38;5016230;28;45455;-71
2022/03/22 01:56:24;;;;;;;;;24.33;23.00;;;;;13.88;46.39;102308.47;5017053;28;45180;-70
2022/03/22 01:58:50;;;;;;;;;20.00;19.67;;;;;13.76;46.35;102290.75;4990214;28;47466;-70
2022/03/22 02:06:45;;;;;;;;;20.33;20.33;;;;;13.77;46.60;102319.19;5016580;28;45400;-72
2022/03/22 02:09:11;;;;;;;;;27.00;26.00;;;;;13.76;46.80;102326.34;5015512;28;46819;-71
2022/03/22 02:11:37;;;;;;;;;23.00;22.00;;;;;13.61;46.22;102307.06;5016438;28;45428;-70
2022/03/22 02:14:04;;;;;;;;;22.33;21.67;;;;;13.54;46.96;102300.53;4998522;28;45410;-72
2022/03/22 02:16:29;;;;;;;;;24.00;23.33;;;;;13.51;46.76;102319.50;5016445;28;45503;-71
2022/03/22 02:18:54;;;;;;;;;25.00;23.00;;;;;13.48;46.67;102310.88;4996491;28;48434;-71
2022/03/22 02:21:23;;;;;;;;;17.33;16.67;;;;;13.48;46.65;102325.09;5016199;28;45420;-72
2022/03/22 02:23:52;;;;;;;;;22.33;21.67;;;;;13.46;46.75;102328.88;5016119;28;45387;-72
2022/03/22 02:26:22;;;;;;;;;22.33;19.67;;;;;13.41;46.74;102329.22;5015998;28;45597;-70
2022/03/22 02:28:53;;;;;;;;;23.33;23.33;;;;;13.39;46.42;102331.16;5015307;28;45377;-73
2022/03/22 02:31:22;;;;;;;;;18.67;18.67;;;;;13.17;47.25;102307.97;5005112;28;45554;-71
2022/03/22 02:33:48;;;;;;;;;20.00;20.00;;;;;12.90;47.08;102259.44;5005458;28;45324;-69
2022/03/22 02:36:14;;;;;;;;;22.33;21.33;;;;;13.03;47.25;102281.53;4994386;28;45512;-71
2022/03/22 02:38:39;;;;;;;;;24.33;21.33;;;;;13.31;46.63;102333.59;5000519;28;47404;-70
2022/03/22 02:41:05;;;;;;;;;20.00;20.00;;;;;13.31;46.94;102329.13;5015632;28;45229;-72
2022/03/22 02:43:31;;;;;;;;;26.67;25.67;;;;;12.88;46.90;102256.91;5008195;28;45245;-71
2022/03/22 02:45:56;;;;;;;;;19.67;19.33;;;;;13.21;47.18;102319.28;4990324;28;45468;-71
2022/03/22 02:48:21;;;;;;;;;27.00;23.33;;;;;13.03;47.49;102287.72;4997838;28;47235;-71
2022/03/22 02:50:47;;;;;;;;;26.67;23.00;;;;;13.20;47.31;102322.91;5014808;28;45714;-71
2022/03/22 02:53:13;;;;;;;;;24.33;23.33;;;;;12.60;47.31;102225.34;5014404;28;45527;-69
2022/03/22 02:55:38;;;;;;;;;24.33;23.33;;;;;12.79;47.33;102269.16;5014360;28;46755;-71
2022/03/22 02:58:04;;;;;;;;;21.33;19.00;;;;;12.60;47.72;102233.34;5013947;28;46282;-69
2022/03/22 03:00:29;;;;;;;;;24.00;21.00;;;;;13.11;47.79;102319.16;5011966;28;45470;-71
2022/03/22 03:02:55;;;;;;;;;24.00;21.33;;;;;13.03;47.60;102303.75;4978984;28;45383;-71
2022/03/22 03:05:22;;;;;;;;;25.67;24.67;;;;;13.15;47.69;102331.28;5005805;28;45453;-70
2022/03/22 03:07:51;;;;;;;;;26.00;23.00;;;;;12.94;47.21;102308.94;5019064;28;46517;-70
2022/03/22 03:10:17;;;;;;;;;28.67;24.00;;;;;13.08;46.80;102336.25;5018934;28;45359;-72
2022/03/22 03:12:42;;;;;;;;;24.33;21.00;;;;;13.09;47.58;102340.63;5017030;28;45427;-72
2022/03/22 03:15:09;;;;;;;;;23.67;21.33;;;;;13.12;47.35;102341.34;5017506;28;45543;-69
2022/03/22 03:17:35;;;;;;;;;24.33;22.00;;;;;12.48;47.51;102246.69;5008960;28;45451;-70
2022/03/22 03:20:01;;;;;;;;;23.67;23.67;;;;;13.08;46.47;102341.59;5017073;28;45506;-72
2022/03/22 03:22:27;;;;;;;;;23.33;22.33;;;;;12.99;46.58;102328.97;4999897;28;45539;-73
2022/03/22 03:24:52;;;;;;;;;22.00;19.33;;;;;13.06;46.19;102337.34;5017080;28;45582;-72
2022/03/22 03:27:18;;;;;;;;;29.67;25.00;;;;;12.97;46.38;102330.06;5000514;28;47712;-71
2022/03/22 03:29:43;;;;;;;;;24.67;21.67;;;;;12.93;46.78;102328.59;5000466;28;45302;-71
2022/03/22 03:32:09;;;;;;;;;27.67;26.67;;;;;12.92;46.63;102335.75;5018768;28;45252;-70
2022/03/22 03:34:35;;;;;;;;;24.33;21.67;;;;;12.99;46.34;102344.97;4992673;28;45547;-72
2022/03/22 03:37:00;;;;;;;;;26.33;23.67;;;;;12.96;46.53;102339.88;4999321;28;45235;-71
2022/03/22 03:39:25;;;;;;;;;23.00;21.00;;;;;12.87;46.76;102329.09;5014685;28;45380;-70
2022/03/22 03:41:53;;;;;;;;;23.67;23.67;;;;;12.92;46.78;102349.13;5018368;28;45386;-71
2022/03/22 03:47:09;;;;;;;;;21.33;18.67;;;;;12.54;47.15;102290.72;5011058;28;45501;-71
2022/03/22 03:49:49;;;;;;;;;25.67;24.00;;;;;12.73;46.88;102323.00;5000282;28;45471;-72
2022/03/22 03:52:16;;;;;;;;;24.00;23.00;;;;;12.77;46.72;102331.63;5000408;28;45439;-71
2022/03/22 03:54:42;;;;;;;;;29.33;23.00;;;;;12.73;46.64;102332.84;5001270;28;45347;-71
2022/03/22 03:57:08;;;;;;;;;25.00;24.00;;;;;12.73;46.71;102338.16;5000427;28;45425;-71
2022/03/22 03:59:35;;;;;;;;;20.00;19.33;;;;;12.80;46.70;102342.06;5018388;28;45350;-72
2022/03/22 04:02:01;;;;;;;;;21.33;21.33;;;;;12.73;46.76;102349.69;4991845;28;45644;-70
2022/03/22 04:04:27;;;;;;;;;29.00;24.67;;;;;12.37;46.40;102289.34;5018728;28;45637;-70
2022/03/22 04:06:53;;;;;;;;;22.00;20.00;;;;;12.70;46.59;102359.75;5017092;28;46652;-73
2022/03/22 04:09:25;;;;;;;;;25.00;22.00;;;;;12.65;46.70;102345.94;5004217;28;45529;-69
2022/03/22 04:11:50;;;;;;;;;23.67;22.67;;;;;12.70;46.62;102354.44;4991345;28;45521;-70
2022/03/22 04:14:15;;;;;;;;;24.67;23.33;;;;;12.16;47.00;102270.50;4995600;28;45588;-70
2022/03/22 04:16:42;;;;;;;;;25.33;22.67;;;;;12.68;46.71;102365.22;5012340;28;46716;-71
2022/03/22 04:19:08;;;;;;;;;22.33;20.00;;;;;12.62;47.32;102357.69;5017196;28;45329;-69
2022/03/22 04:21:38;;;;;;;;;22.00;21.00;;;;;12.62;47.46;102362.19;5017772;28;45417;-70
2022/03/22 04:24:06;;;;;;;;;26.00;24.00;;;;;12.58;47.32;102361.53;5016437;28;45469;-71
2022/03/22 04:26:34;;;;;;;;;25.00;21.33;;;;;12.58;47.69;102364.22;5011726;28;46409;-72
2022/03/22 04:34:28;;;;;;;;;25.33;23.00;;;;;12.24;47.71;102309.09;5015985;28;45389;-68
2022/03/22 04:36:56;;;;;;;;;20.33;19.33;;;;;12.46;47.83;102358.00;4999062;28;48319;-68
2022/03/22 04:39:23;;;;;;;;;25.33;25.33;;;;;12.42;47.37;102367.22;4999633;28;45531;-71
2022/03/22 04:41:49;;;;;;;;;29.67;23.00;;;;;12.40;47.75;102365.59;4999462;28;45382;-71
2022/03/22 04:44:16;;;;;;;;;27.67;23.67;;;;;12.41;47.77;102376.19;4997664;28;45678;-71
2022/03/22 04:46:41;;;;;;;;;25.00;22.00;;;;;11.97;48.01;102302.19;5017315;28;46303;-70
2022/03/22 04:49:07;;;;;;;;;23.00;23.00;;;;;12.24;48.11;102347.28;4991683;28;46237;-70
2022/03/22 04:57:02;;;;;;;;;21.67;20.00;;;;;11.95;48.40;102324.59;5016361;28;45872;-70
2022/03/22 04:59:28;;;;;;;;;23.00;21.67;;;;;11.91;47.96;102320.47;5017180;28;45452;-70
2022/03/22 05:01:54;;;;;;;;;23.67;21.33;;;;;12.23;47.96;102382.91;5017508;28;45459;-70
2022/03/22 05:04:19;;;;;;;;;25.67;25.67;;;;;12.19;48.73;102386.75;5017482;28;45345;-72
2022/03/22 05:06:45;;;;;;;;;27.00;23.00;;;;;12.10;48.74;102379.44;5017053;28;46538;-72
2022/03/22 05:09:11;;;;;;;;;23.33;22.67;;;;;12.12;48.33;102381.03;4998465;28;45524;-72
2022/03/22 05:11:37;;;;;;;;;24.00;24.00;;;;;12.16;48.54;102386.97;5009475;28;45287;-73
2022/03/22 05:14:03;;;;;;;;;24.67;22.33;;;;;12.12;48.39;102386.34;5017367;28;45478;-71
2022/03/22 05:16:29;;;;;;;;;24.33;22.33;;;;;12.09;48.39;102381.25;4998075;28;46246;-70
2022/03/22 05:18:56;;;;;;;;;28.00;26.67;;;;;12.15;48.52;102390.59;5016649;28;45259;-70
2022/03/22 05:21:22;;;;;;;;;27.33;24.33;;;;;11.56;48.92;102300.75;4999225;28;45485;-72
2022/03/22 05:23:47;;;;;;;;;27.67;26.33;;;;;12.07;48.83;102399.19;5016736;28;45396;-71
2022/03/22 05:26:16;;;;;;;;;30.00;27.00;;;;;12.04;48.82;102382.56;5002204;28;45460;-69
2022/03/22 05:28:41;;;;;;;;;28.00;24.00;;;;;12.07;48.66;102387.66;4996793;28;45479;-71
2022/03/22 05:31:09;;;;;;;;;32.33;25.67;;;;;12.02;48.50;102385.34;5002451;28;45490;-70
2022/03/22 05:33:36;;;;;;;;;25.33;21.33;;;;;11.96;48.10;102387.59;5016528;28;45382;-70
2022/03/22 05:36:01;;;;;;;;;23.67;21.00;;;;;12.05;48.02;102416.25;5015838;28;46233;-70
2022/03/22 05:38:27;;;;;;;;;29.00;24.33;;;;;12.01;47.85;102401.44;5016646;28;45490;-71
2022/03/22 05:40:53;;;;;;;;;29.33;27.00;;;;;11.94;48.43;102401.03;5016474;28;46012;-69
2022/03/22 05:43:20;;;;;;;;;32.33;26.33;;;;;11.95;48.09;102410.75;5016894;28;45309;-69
2022/03/22 05:45:48;;;;;;;;;29.00;27.67;;;;;11.97;48.48;102407.97;5006968;28;46490;-70
2022/03/22 05:48:18;;;;;;;;;31.33;28.67;;;;;11.84;48.02;102403.53;4983791;28;45273;-70
2022/03/22 05:50:44;;;;;;;;;23.67;23.33;;;;;11.97;47.75;102418.63;5016534;28;45359;-72
2022/03/22 05:53:12;;;;;;;;;27.00;24.67;;;;;11.96;48.03;102422.25;5016704;28;45365;-72
2022/03/22 05:55:39;;;;;;;;;26.00;23.33;;;;;11.86;48.58;102412.28;4997595;28;48553;-70
2022/03/22 05:58:05;;;;;;;;;20.33;19.00;;;;;11.86;48.38;102422.94;5016365;28;45542;-71
2022/03/22 06:00:31;;;;;;;;;24.33;24.00;;;;;11.91;48.15;102427.06;5016124;28;45384;-71
2022/03/22 06:02:56;;;;;;;;;33.67;27.33;;;;;11.88;47.75;102425.47;5016124;28;45479;-70
2022/03/22 06:05:22;;;;;;;;;29.67;28.00;;;;;11.97;48.18;102432.78;5009590;28;46405;-69
2022/03/22 06:07:48;;;;;;;;;24.67;22.33;;;;;11.98;48.17;102441.66;5005270;28;45219;-71
2022/03/22 06:10:13;;;;;;;;;22.00;20.67;;;;;11.60;47.88;102373.28;4997386;28;45393;-71
2022/03/22 06:12:43;;;;;;;;;28.00;25.67;;;;;11.86;47.93;102417.59;4990992;28;45442;-72
2022/03/22 06:15:14;;;;;;;;;25.33;20.00;;;;;12.06;47.79;102449.94;5016063;28;46620;-72
2022/03/22 06:17:46;;;;;;;;;30.33;26.67;;;;;12.08;47.71;102458.69;5015102;28;46383;-73
2022/03/22 06:20:13;;;;;;;;;25.67;24.67;;;;;11.87;47.60;102429.97;4989676;28;45655;-71
2022/03/22 06:22:38;;;;;;;;;31.33;28.00;;;;;11.85;47.62;102439.88;4996708;28;45430;-72
2022/03/22 06:25:04;;;;;;;;;30.00;25.67;;;;;12.07;47.94;102451.66;4997499;28;47502;-71
2022/03/22 06:27:29;;;;;;;;;27.00;25.33;;;;;11.97;47.40;102421.28;5011383;28;45292;-72
2022/03/22 06:29:55;;;;;;;;;32.67;30.33;;;;;12.11;47.27;102453.97;4996917;28;45556;-72
2022/03/22 06:32:23;;;;;;;;;28.33;27.00;;;;;12.19;47.04;102458.72;4996336;28;45547;-71
2022/03/22 06:34:51;;;;;;;;;29.00;26.33;;;;;12.18;47.20;102449.03;5002955;28;46381;-70
2022/03/22 06:37:16;;;;;;;;;27.33;25.33;;;;;12.25;47.02;102460.97;5015105;28;45459;-71
2022/03/22 06:39:41;;;;;;;;;30.00;27.33;;;;;12.29;47.02;102472.25;4992139;28;45472;-70
2022/03/22 06:42:07;;;;;;;;;31.33;26.67;;;;;12.21;46.74;102459.47;4990657;28;45167;-73
2022/03/22 06:44:37;;;;;;;;;28.67;26.00;;;;;12.36;46.58;102479.69;5009703;28;48731;-72
2022/03/22 06:47:03;;;;;;;;;27.00;22.00;;;;;12.34;46.18;102465.63;5003777;28;45631;-72
2022/03/22 06:49:28;;;;;;;;;27.67;27.67;;;;;12.04;46.18;102419.88;4993076;28;45220;-70
2022/03/22 06:51:54;;;;;;;;;31.33;30.00;;;;;12.41;46.72;102484.66;5018290;28;45630;-71
2022/03/22 06:54:21;;;;;;;;;31.00;28.00;;;;;12.36;45.97;102479.69;5000215;28;47467;-72
2022/03/22 06:56:47;;;;;;;;;34.33;30.00;;;;;12.44;45.89;102469.31;4995504;28;45400;-71
2022/03/22 06:59:12;;;;;;;;;33.67;27.33;;;;;12.54;45.69;102484.63;4997804;28;45487;-73
2022/03/22 07:01:37;;;;;;;;;28.00;26.33;;;;;12.63;45.52;102483.97;5000995;28;45314;-73
2022/03/22 07:04:03;;;;;;;;;32.00;28.67;;;;;12.72;45.50;102475.25;5000567;28;47503;-69
2022/03/22 07:06:29;;;;;;;;;31.33;27.00;;;;;12.88;44.94;102475.78;5016098;28;45622;-72
2022/03/22 07:08:55;;;;;;;;;37.33;30.67;;;;;12.80;44.88;102456.81;5016803;28;45264;-72
2022/03/22 07:14:04;;;;;;;;;35.67;32.00;;;;;13.44;43.67;102477.75;5016047;28;45844;-73
2022/03/22 07:16:30;;;;;;;;;35.33;30.00;;;;;13.63;43.55;102473.50;5011891;28;45498;-72
2022/03/22 07:18:55;;;;;;;;;30.67;28.33;;;;;13.80;42.69;102449.91;5009094;28;45895;-73
2022/03/22 07:21:21;;;;;;;;;28.00;27.00;;;;;14.06;41.73;102434.44;5000176;28;45588;-76
2022/03/22 07:23:46;;;;;;;;;33.67;29.33;;;;;14.60;41.06;102477.22;5010178;28;45705;-74
2022/03/22 07:26:11;;;;;;;;;35.67;28.67;;;;;14.89;40.69;102469.41;5018596;28;45483;-71
2022/03/22 07:28:37;;;;;;;;;31.33;28.00;;;;;14.93;40.15;102436.03;4993716;28;45426;-73
2022/03/22 07:31:03;;;;;;;;;40.00;35.33;;;;;15.47;39.28;102496.56;5005094;28;45471;-73
2022/03/22 07:33:29;;;;;;;;;32.33;29.33;;;;;15.71;38.97;102485.56;5009352;28;46482;-72
2022/03/22 07:35:54;;;;;;;;;36.00;29.00;;;;;15.92;38.52;102475.63;5012558;28;45523;-72
2022/03/22 07:38:20;;;;;;;;;29.33;27.67;;;;;16.31;38.04;102491.81;5018683;28;45495;-70
2022/03/22 07:40:45;;;;;;;;;34.50;28.00;;;;;16.42;37.33;102467.53;4999849;28;45381;-73
2022/03/22 07:43:11;;;;;;;;;35.33;31.00;;;;;16.87;37.00;102475.06;5017185;28;46762;-71
2022/03/22 07:45:37;;;;;;;;;37.00;30.00;;;;;17.14;36.41;102485.03;4999780;28;45460;-73
2022/03/22 07:48:11;;;;;;;;;35.33;33.00;;;;;17.38;35.83;102477.31;4996297;28;45649;-72
2022/03/22 07:53:21;;;;;;;;;36.00;32.33;;;;;17.65;35.24;102495.38;5011692;28;45238;-73
2022/03/22 07:55:46;;;;;;;;;39.33;30.67;;;;;17.70;35.01;102474.28;5019721;28;45370;-74
2022/03/22 07:58:12;;;;;;;;;38.33;32.00;;;;;18.03;34.65;102494.38;4992714;28;45592;-73
2022/03/22 08:00:40;;;;;;;;;35.67;32.00;;;;;18.23;34.40;102495.09;5008522;28;45470;-72
2022/03/22 08:03:12;;;;;;;;;31.33;28.33;;;;;18.39;34.03;102495.25;5011684;28;46414;-73
2022/03/22 08:05:40;;;;;;;;;35.33;31.00;;;;;18.52;33.17;102489.50;4985565;28;45392;-71
2022/03/22 08:08:06;;;;;;;;;36.67;32.33;;;;;18.63;33.52;102488.47;4992937;28;45404;-74
2022/03/22 08:10:32;;;;;;;;;33.00;29.67;;;;;18.74;32.65;102477.44;5009971;28;45313;-69
2022/03/22 08:12:59;;;;;;;;;38.00;34.00;;;;;18.98;32.77;102495.66;4998237;28;47974;-73
2022/03/22 08:15:25;;;;;;;;;38.00;31.67;;;;;19.08;32.04;102486.47;4983329;28;46010;-75
2022/03/22 08:17:50;;;;;;;;;32.33;28.67;;;;;19.28;31.72;102486.28;5015940;28;45277;-71
2022/03/22 08:20:16;;;;;;;;;36.33;31.67;;;;;19.06;31.53;102428.34;4999799;28;45527;-72
2022/03/22 08:22:59;;;;;;;;;31.67;30.00;;;;;19.64;30.92;102493.28;5017041;28;45781;-73
2022/03/22 08:25:33;;;;;;;;;32.33;26.00;;;;;19.78;30.21;102504.44;5013128;28;45291;-72
2022/03/22 08:28:00;;;;;;;;;42.33;30.67;;;;;19.66;29.85;102485.88;4998820;28;45500;-70
2022/03/22 08:30:27;;;;;;;;;30.00;29.00;;;;;19.88;29.82;102497.94;4988953;28;45494;-72
2022/03/22 08:32:55;;;;;;;;;31.33;28.67;;;;;19.88;29.03;102486.28;4999235;28;47908;-71
2022/03/22 08:35:23;;;;;;;;;35.33;31.67;;;;;20.12;29.34;102493.63;5009065;28;45348;-72
2022/03/22 08:37:52;;;;;;;;;27.67;26.67;;;;;20.22;27.14;102489.78;5008086;28;45732;-71
2022/03/22 08:40:18;;;;;;;;;28.33;25.33;;;;;20.34;26.32;102507.34;5013676;28;45621;-73
2022/03/22 08:42:45;;;;;;;;;30.33;29.00;;;;;20.41;26.54;102495.91;4998855;28;48008;-71
2022/03/22 08:45:18;;;;;;;;;25.00;23.67;;;;;20.49;25.54;102504.06;5016440;28;45292;-70
2022/03/22 08:47:46;;;;;;;;;27.00;24.00;;;;;20.60;24.55;102495.59;4997920;28;45574;-70
2022/03/22 08:50:14;;;;;;;;;29.67;25.33;;;;;20.89;24.61;102477.03;5004685;28;45342;-71
2022/03/22 08:52:41;;;;;;;;;28.00;25.00;;;;;21.04;22.56;102479.06;4998857;28;48028;-71
2022/03/22 08:55:09;;;;;;;;;28.00;24.00;;;;;20.86;22.10;102423.31;5008895;28;45418;-72
2022/03/22 08:57:35;;;;;;;;;22.00;21.67;;;;;21.18;21.86;102435.91;5008333;28;45618;-71
2022/03/22 09:00:08;;;;;;;;;22.00;20.67;;;;;21.77;21.29;102484.31;5019102;28;45293;-70
2022/03/22 09:02:34;;;;;;;;;25.33;21.33;;;;;21.94;20.56;102491.34;5016491;28;45789;-70
2022/03/22 09:07:45;;;;;;;;;20.33;17.33;;;;;22.52;19.29;102483.75;5017146;28;45439;-70
2022/03/22 09:10:12;;;;;;;;;19.00;17.33;;;;;21.91;17.10;102453.78;5016991;28;45322;-71
2022/03/22 09:12:37;;;;;;;;;17.00;17.00;;;;;22.02;16.41;102494.00;4998988;28;48336;-70
2022/03/22 09:15:03;;;;;;;;;14.00;14.00;;;;;22.11;16.80;102490.28;4996926;28;45582;-73
2022/03/22 09:17:30;;;;;;;;;20.00;17.67;;;;;22.17;16.73;102467.03;4989504;28;45576;-74
2022/03/22 09:19:56;;;;;;;;;24.00;21.67;;;;;22.61;17.01;102505.19;5016817;28;45299;-71
2022/03/22 09:22:21;;;;;;;;;17.33;16.67;;;;;22.21;16.81;102454.81;4998485;28;46751;-72
2022/03/22 09:24:46;;;;;;;;;20.00;17.33;;;;;22.31;16.90;102503.38;5017451;28;45341;-71
2022/03/22 09:27:12;;;;;;;;;14.33;10.67;;;;;22.32;16.95;102484.22;5000066;28;45354;-71
2022/03/22 09:29:38;;;;;;;;;19.67;19.67;;;;;22.37;16.55;102470.13;5017230;28;45485;-72
2022/03/22 09:32:04;;;;;;;;;20.00;17.67;;;;;22.92;16.71;102501.59;4998258;28;47500;-71
2022/03/22 09:34:39;;;;;;;;;18.67;16.67;;;;;23.38;16.02;102476.03;4998422;28;45458;-72
2022/03/22 09:37:07;;;;;;;;;19.33;17.00;;;;;24.29;15.77;102492.94;4999085;28;45373;-75
2022/03/22 09:39:38;;;;;;;;;16.33;16.33;;;;;24.84;15.66;102450.59;5006035;28;45310;-73
2022/03/22 09:42:06;;;;;;;;;17.33;16.33;;;;;25.67;14.60;102425.22;5011232;28;45611;-71
2022/03/22 09:44:36;;;;;;;;;24.00;19.00;;;;;26.10;14.20;102407.72;4998605;28;45419;-73
2022/03/22 09:47:05;;;;;;;;;19.33;19.33;;;;;27.07;13.69;102469.97;4998718;28;45376;-71
2022/03/22 09:49:31;;;;;;;;;18.00;16.67;;;;;27.27;13.18;102498.06;4999264;28;45539;-72
2022/03/22 09:51:57;;;;;;;;;19.00;15.33;;;;;27.70;12.71;102451.97;5016647;28;45372;-72
2022/03/22 09:54:24;;;;;;;;;17.67;16.67;;;;;27.99;12.45;102471.59;5016740;28;45429;-74
2022/03/22 09:56:53;;;;;;;;;20.67;18.67;;;;;27.79;11.69;102425.22;4987835;28;45383;-74
2022/03/22 09:59:18;;;;;;;;;16.33;15.00;;;;;27.15;12.53;102401.47;5017324;28;45603;-71
2022/03/22 10:01:45;;;;;;;;;17.00;17.00;;;;;27.16;12.64;102480.44;4999368;28;46868;-71
2022/03/22 10:04:13;;;;;;;;;16.67;14.33;;;;;26.51;13.30;102479.34;4996664;28;45576;-71
2022/03/22 10:06:50;;;;;;;;;19.00;17.67;;;;;25.61;13.73;102420.50;4996282;28;45361;-71
2022/03/22 10:09:30;;;;;;;;;15.67;15.00;;;;;25.43;14.18;102485.59;4996875;28;45232;-70
2022/03/22 10:11:56;;;;;;;;;20.00;20.00;;;;;24.71;14.70;102451.31;4995999;28;46113;-71
2022/03/22 10:14:32;;;;;;;;;22.00;19.33;;;;;24.18;14.86;102468.94;5015861;28;45353;-70
2022/03/22 10:16:58;;;;;;;;;15.00;14.67;;;;;23.67;15.32;102475.25;4998451;28;45364;-72
2022/03/22 10:19:25;;;;;;;;;14.67;14.33;;;;;23.16;15.60;102495.09;5018282;28;45254;-72
2022/03/22 10:21:53;;;;;;;;;20.67;20.67;;;;;22.61;15.93;102494.34;5016521;28;46619;-70
2022/03/22 10:24:19;;;;;;;;;19.33;18.33;;;;;22.04;16.41;102494.72;5016231;28;45528;-71
2022/03/22 10:26:46;;;;;;;;;20.67;20.67;;;;;21.59;16.76;102478.28;5015880;28;45402;-71
2022/03/22 10:29:14;;;;;;;;;18.00;17.67;;;;;21.08;17.40;102483.13;4995453;28;45506;-70
2022/03/22 10:31:40;;;;;;;;;16.33;15.67;;;;;20.58;17.72;102457.94;4998034;28;48636;-72
2022/03/22 10:34:10;;;;;;;;;17.67;17.67;;;;;20.66;17.93;102478.75;5015935;28;45237;-72
2022/03/22 10:36:38;;;;;;;;;21.67;19.00;;;;;20.19;18.19;102473.88;5015996;28;45302;-75
2022/03/22 10:39:11;;;;;;;;;20.67;17.67;;;;;19.82;18.68;102458.06;5015816;28;45240;-71
2022/03/22 10:41:40;;;;;;;;;21.00;19.33;;;;;19.59;18.88;102455.13;5015484;28;48007;-70
2022/03/22 10:44:08;;;;;;;;;18.00;17.33;;;;;19.49;19.33;102472.41;4996218;28;45388;-73
2022/03/22 10:46:35;;;;;;;;;17.00;15.33;;;;;19.31;19.53;102442.81;5009640;28;45498;-72
2022/03/22 10:49:05;;;;;;;;;21.67;18.33;;;;;18.92;19.44;102393.88;5015601;28;45401;-71
2022/03/22 10:51:35;;;;;;;;;15.67;12.67;;;;;18.93;19.70;102426.06;5003422;28;45802;-71
2022/03/22 10:54:00;;;;;;;;;18.33;16.00;;;;;18.97;19.64;102467.84;4997993;28;45460;-71
2022/03/22 10:56:30;;;;;;;;;21.33;20.00;;;;;18.79;20.15;102467.03;4997983;28;45365;-72
2022/03/22 10:58:58;;;;;;;;;14.33;13.00;;;;;18.50;20.32;102416.94;5001548;28;45278;-70
2022/03/22 11:01:24;;;;;;;;;20.67;19.00;;;;;18.66;19.53;102448.59;4996031;28;46220;-73
2022/03/22 11:03:56;;;;;;;;;15.67;14.67;;;;;18.23;19.23;102425.13;4995935;28;45389;-71
2022/03/22 11:06:25;;;;;;;;;21.33;19.33;;;;;17.92;20.02;102395.84;4996109;28;45368;-71
2022/03/22 11:08:50;;;;;;;;;20.33;20.33;;;;;17.80;19.76;102380.91;5004297;28;45271;-74
2022/03/22 11:11:17;;;;;;;;;17.67;17.67;;;;;18.10;20.47;102419.25;5017125;28;45563;-71
2022/03/22 11:13:43;;;;;;;;;20.33;19.00;;;;;18.25;20.62;102436.56;5016505;28;45486;-70
2022/03/22 11:16:10;;;;;;;;;18.67;18.67;;;;;17.88;20.08;102399.00;5018550;28;45466;-71
2022/03/22 11:18:37;;;;;;;;;16.33;16.33;;;;;18.06;20.38;102429.47;5017627;28;45662;-72
2022/03/22 11:21:04;;;;;;;;;17.00;17.00;;;;;17.95;20.27;102410.84;5005136;28;46546;-72
2022/03/22 11:23:32;;;;;;;;;20.67;19.33;;;;;18.22;20.53;102439.56;5012340;28;45468;-71
2022/03/22 11:26:09;;;;;;;;;17.33;17.33;;;;;18.06;20.28;102434.84;5015391;28;45378;-71
2022/03/22 11:28:35;;;;;;;;;16.00;14.00;;;;;18.04;20.04;102454.84;4999388;28;45416;-73
2022/03/22 11:31:02;;;;;;;;;20.67;19.00;;;;;17.98;20.37;102442.81;5001412;28;45453;-70
2022/03/22 11:36:53;;;;;;;;;20.00;18.33;;;;;18.17;20.63;102441.84;5019165;28;45213;-70
2022/03/22 11:42:36;;;;;;;;;24.00;21.00;;;;;18.15;21.17;102425.00;4998721;28;45792;-70